Emine Anne — TCBX9 — position and weather

sailwx.info

Track history (hours):
 
Tides and Currents Weather Stations Pressure Air Temp Water Temp Dewpoint Dewpoint Depression Visibility Wind Speed Wind Dir Waves Ship Positions

Emine Anne

Last reported at 2017-Nov-22 19:43 UTC. Time now 2017-Nov-24 07:26 UTC.
Position N 43°51' E 029°11'.

Length 69 m; draft 4.6 m.

Type: Cargo ship. MMSI: 271002305.

Date/timePositionNaut miles runAvg speedWind from/ knotsBaromVisibWave heightAir tempDewpointWater temp
2017-Nov-22 19:43N 43°51' E 029°11'2 9.2
2017-Nov-22 19:30N 43°53' E 029°13'  
2017-Nov-20 00:25N 46°46' E 031°57'0 0.0
2017-Nov-19 23:57N 46°46' E 031°57'0 0.0
2017-Nov-19 23:27N 46°46' E 031°57'0 0.0
2017-Nov-19 22:57N 46°46' E 031°57'0 0.0
2017-Nov-19 22:28N 46°46' E 031°57'0 0.0
2017-Nov-19 21:58N 46°46' E 031°57'0 0.0
2017-Nov-19 21:28N 46°46' E 031°57'0 0.0
2017-Nov-19 20:56N 46°46' E 031°57'0 0.0
2017-Nov-19 20:26N 46°46' E 031°57'0 0.0
2017-Nov-19 19:56N 46°46' E 031°57'0 0.0
2017-Nov-19 19:29N 46°46' E 031°57'0 0.0
2017-Nov-19 18:58N 46°46' E 031°57'0 0.0
2017-Nov-19 18:30N 46°46' E 031°57'0 0.0
2017-Nov-19 18:00N 46°46' E 031°57'0 0.0
2017-Nov-19 17:30N 46°46' E 031°57'0 0.0
2017-Nov-19 16:57N 46°46' E 031°57'0 0.0
2017-Nov-19 16:29N 46°46' E 031°57'0 0.0
2017-Nov-19 15:56N 46°46' E 031°57'0 0.0
2017-Nov-19 15:27N 46°46' E 031°57'0 0.0
2017-Nov-19 15:00N 46°46' E 031°57'0 0.0
2017-Nov-19 14:27N 46°46' E 031°57'0 0.0
2017-Nov-19 14:00N 46°46' E 031°57'0 0.0
2017-Nov-19 13:28N 46°46' E 031°57'0 0.0
2017-Nov-19 12:59N 46°46' E 031°57'0 0.0
2017-Nov-19 12:29N 46°46' E 031°57'0 0.0
2017-Nov-19 11:59N 46°46' E 031°57'0 0.0
2017-Nov-19 11:29N 46°46' E 031°57'0 0.0
2017-Nov-19 10:59N 46°46' E 031°57'0 0.0
2017-Nov-19 10:29N 46°46' E 031°57'0 0.0
2017-Nov-19 09:59N 46°46' E 031°57'0 0.0
2017-Nov-19 09:29N 46°46' E 031°57'0 0.0
2017-Nov-19 08:57N 46°46' E 031°57'0 0.0
2017-Nov-19 08:21N 46°46' E 031°57'0 0.0
2017-Nov-19 07:57N 46°46' E 031°57'0 0.0
2017-Nov-19 07:29N 46°46' E 031°57'0 0.0
2017-Nov-19 06:55N 46°46' E 031°57'0 0.0
2017-Nov-19 06:28N 46°46' E 031°57'0 0.0
2017-Nov-19 06:00N 46°46' E 031°57'0 0.0
2017-Nov-19 05:28N 46°46' E 031°57'0 0.0
2017-Nov-19 04:59N 46°46' E 031°57'0 0.0
2017-Nov-19 04:29N 46°46' E 031°57'0 0.0
2017-Nov-19 03:59N 46°46' E 031°57'0 0.0
2017-Nov-19 03:29N 46°46' E 031°57'0 0.0
2017-Nov-19 02:59N 46°46' E 031°57'0 0.0
2017-Nov-19 02:29N 46°46' E 031°57'0 0.0
2017-Nov-19 01:57N 46°46' E 031°57'0 0.0
2017-Nov-19 01:21N 46°46' E 031°57'0 0.0
2017-Nov-19 00:57N 46°46' E 031°57'0 0.0
2017-Nov-19 00:27N 46°46' E 031°57'0 0.0
2017-Nov-18 23:55N 46°46' E 031°57'0 0.0
2017-Nov-18 23:26N 46°46' E 031°57'0 0.0
2017-Nov-18 22:55N 46°46' E 031°57'0 0.0
2017-Nov-18 22:29N 46°46' E 031°57'0 0.0
2017-Nov-18 21:56N 46°46' E 031°57'0 0.0
2017-Nov-18 21:26N 46°46' E 031°57'0 0.0
2017-Nov-18 20:56N 46°46' E 031°57'0 0.0
2017-Nov-18 20:29N 46°46' E 031°57'0 0.0
2017-Nov-18 19:59N 46°46' E 031°57'0 0.0
2017-Nov-18 19:29N 46°46' E 031°57'0 0.0
2017-Nov-18 18:56N 46°46' E 031°57'0 0.6
2017-Nov-18 18:30N 46°46' E 031°57'2 4.0
2017-Nov-18 18:01N 46°45' E 031°55'4 7.1
2017-Nov-18 17:30N 46°41' E 031°56'5 9.5
2017-Nov-18 17:00N 46°37' E 031°52'5 9.9
2017-Nov-18 16:29N 46°36' E 031°45'169 7.8
2017-Nov-17 18:40N 44°18' E 029°25'1 7.4
2017-Nov-17 18:30N 44°17' E 029°23'4 7.4
2017-Nov-17 18:00N 44°15' E 029°19'4 7.6
2017-Nov-17 17:30N 44°13' E 029°15'4 7.5
2017-Nov-17 17:00N 44°11' E 029°10'4 7.5
2017-Nov-17 16:30N 44°10' E 029°05'4 7.7
2017-Nov-17 16:00N 44°08' E 029°00'4 7.7
2017-Nov-17 15:30N 44°07' E 028°55'4 7.7
2017-Nov-17 15:00N 44°06' E 028°50'3 6.9
2017-Nov-17 14:30N 44°06' E 028°45'3 6.2
2017-Nov-17 14:00N 44°07' E 028°42'3 6.1
2017-Nov-17 13:29N 44°09' E 028°39'0 0.0
2017-Nov-17 12:58N 44°09' E 028°39'0 0.0
2017-Nov-17 12:30N 44°09' E 028°39'0 0.0
2017-Nov-17 12:00N 44°09' E 028°39'0 0.0
2017-Nov-17 11:30N 44°09' E 028°39'0 0.0
2017-Nov-17 10:54N 44°09' E 028°39'0 0.0
2017-Nov-17 10:28N 44°09' E 028°39'0 0.0
2017-Nov-17 10:00N 44°09' E 028°39'0 0.0
2017-Nov-17 09:26N 44°09' E 028°39'0 0.0
2017-Nov-17 09:00N 44°09' E 028°39'0 0.0
2017-Nov-17 08:29N 44°09' E 028°39'0 0.0
2017-Nov-17 07:57N 44°09' E 028°39'0 0.0
2017-Nov-17 07:28N 44°09' E 028°39'0 0.0
2017-Nov-17 06:59N 44°09' E 028°39'0 0.0
2017-Nov-17 06:30N 44°09' E 028°39'0 0.0
2017-Nov-17 05:58N 44°09' E 028°39'0 0.0
2017-Nov-17 05:30N 44°09' E 028°39'0 0.0
2017-Nov-17 04:59N 44°09' E 028°39'0 0.0
2017-Nov-17 04:23N 44°09' E 028°39'0 0.0
2017-Nov-17 03:59N 44°09' E 028°39'0 0.0
2017-Nov-17 03:30N 44°09' E 028°39'0 0.0
2017-Nov-17 02:55N 44°09' E 028°39'0 0.0
2017-Nov-17 02:30N 44°09' E 028°39'0 0.0
2017-Nov-17 01:58N 44°09' E 028°39'0 0.0
2017-Nov-17 01:28N 44°09' E 028°39'0 0.0
2017-Nov-17 01:00N 44°09' E 028°39'0 0.0
2017-Nov-17 00:30N 44°09' E 028°39'0 0.0
2017-Nov-17 00:00N 44°09' E 028°39'0 0.0
2017-Nov-16 23:28N 44°09' E 028°39'0 0.0
2017-Nov-16 23:00N 44°09' E 028°39'0 0.0
2017-Nov-16 22:29N 44°09' E 028°39'0 0.0
2017-Nov-16 21:59N 44°09' E 028°39'0 0.0
2017-Nov-16 21:30N 44°09' E 028°39'0 0.0
2017-Nov-16 21:00N 44°09' E 028°39'0 0.0
2017-Nov-16 20:28N 44°09' E 028°39'0 0.0
2017-Nov-16 20:00N 44°09' E 028°39'0 0.0
2017-Nov-16 19:24N 44°09' E 028°39'0 0.0
2017-Nov-16 18:59N 44°09' E 028°39'0 0.0
2017-Nov-16 18:28N 44°09' E 028°39'0 0.0
2017-Nov-16 18:00N 44°09' E 028°39'0 0.0
2017-Nov-16 17:30N 44°09' E 028°39'0 0.0
2017-Nov-16 17:00N 44°09' E 028°39'0 0.0
2017-Nov-16 16:29N 44°09' E 028°39'0 0.0
2017-Nov-16 16:00N 44°09' E 028°39'0 0.0
2017-Nov-16 15:25N 44°09' E 028°39'  
2017-Nov-14 00:25N 40°52' E 029°01'  
Track history (hours):
 
Tides and Currents Weather Stations Pressure Air Temp Water Temp Dewpoint Dewpoint Depression Visibility Wind Speed Wind Dir Waves Ship Positions

Emine Anne

Last reported at 2017-Nov-22 19:43 UTC. Time now 2017-Nov-24 07:26 UTC.
Position N 43°51' E 029°11'.

Length 69 m; draft 4.6 m.

Type: Cargo ship. MMSI: 271002305.

Date/timePositionNaut miles runAvg speedWind from/ knotsBaromVisibWave heightAir tempDewpointWater temp
2017-Nov-22 19:43N 43°51' E 029°11'2 9.2
2017-Nov-22 19:30N 43°53' E 029°13'  
2017-Nov-20 00:25N 46°46' E 031°57'0 0.0
2017-Nov-19 23:57N 46°46' E 031°57'0 0.0
2017-Nov-19 23:27N 46°46' E 031°57'0 0.0
2017-Nov-19 22:57N 46°46' E 031°57'0 0.0
2017-Nov-19 22:28N 46°46' E 031°57'0 0.0
2017-Nov-19 21:58N 46°46' E 031°57'0 0.0
2017-Nov-19 21:28N 46°46' E 031°57'0 0.0
2017-Nov-19 20:56N 46°46' E 031°57'0 0.0
2017-Nov-19 20:26N 46°46' E 031°57'0 0.0
2017-Nov-19 19:56N 46°46' E 031°57'0 0.0
2017-Nov-19 19:29N 46°46' E 031°57'0 0.0
2017-Nov-19 18:58N 46°46' E 031°57'0 0.0
2017-Nov-19 18:30N 46°46' E 031°57'0 0.0
2017-Nov-19 18:00N 46°46' E 031°57'0 0.0
2017-Nov-19 17:30N 46°46' E 031°57'0 0.0
2017-Nov-19 16:57N 46°46' E 031°57'0 0.0
2017-Nov-19 16:29N 46°46' E 031°57'0 0.0
2017-Nov-19 15:56N 46°46' E 031°57'0 0.0
2017-Nov-19 15:27N 46°46' E 031°57'0 0.0
2017-Nov-19 15:00N 46°46' E 031°57'0 0.0
2017-Nov-19 14:27N 46°46' E 031°57'0 0.0
2017-Nov-19 14:00N 46°46' E 031°57'0 0.0
2017-Nov-19 13:28N 46°46' E 031°57'0 0.0
2017-Nov-19 12:59N 46°46' E 031°57'0 0.0
2017-Nov-19 12:29N 46°46' E 031°57'0 0.0
2017-Nov-19 11:59N 46°46' E 031°57'0 0.0
2017-Nov-19 11:29N 46°46' E 031°57'0 0.0
2017-Nov-19 10:59N 46°46' E 031°57'0 0.0
2017-Nov-19 10:29N 46°46' E 031°57'0 0.0
2017-Nov-19 09:59N 46°46' E 031°57'0 0.0
2017-Nov-19 09:29N 46°46' E 031°57'0 0.0
2017-Nov-19 08:57N 46°46' E 031°57'0 0.0
2017-Nov-19 08:21N 46°46' E 031°57'0 0.0
2017-Nov-19 07:57N 46°46' E 031°57'0 0.0
2017-Nov-19 07:29N 46°46' E 031°57'0 0.0
2017-Nov-19 06:55N 46°46' E 031°57'0 0.0
2017-Nov-19 06:28N 46°46' E 031°57'0 0.0
2017-Nov-19 06:00N 46°46' E 031°57'0 0.0
2017-Nov-19 05:28N 46°46' E 031°57'0 0.0
2017-Nov-19 04:59N 46°46' E 031°57'0 0.0
2017-Nov-19 04:29N 46°46' E 031°57'0 0.0
2017-Nov-19 03:59N 46°46' E 031°57'0 0.0
2017-Nov-19 03:29N 46°46' E 031°57'0 0.0
2017-Nov-19 02:59N 46°46' E 031°57'0 0.0
2017-Nov-19 02:29N 46°46' E 031°57'0 0.0
2017-Nov-19 01:57N 46°46' E 031°57'0 0.0
2017-Nov-19 01:21N 46°46' E 031°57'0 0.0
2017-Nov-19 00:57N 46°46' E 031°57'0 0.0
2017-Nov-19 00:27N 46°46' E 031°57'0 0.0
2017-Nov-18 23:55N 46°46' E 031°57'0 0.0
2017-Nov-18 23:26N 46°46' E 031°57'0 0.0
2017-Nov-18 22:55N 46°46' E 031°57'0 0.0
2017-Nov-18 22:29N 46°46' E 031°57'0 0.0
2017-Nov-18 21:56N 46°46' E 031°57'0 0.0
2017-Nov-18 21:26N 46°46' E 031°57'0 0.0
2017-Nov-18 20:56N 46°46' E 031°57'0 0.0
2017-Nov-18 20:29N 46°46' E 031°57'0 0.0
2017-Nov-18 19:59N 46°46' E 031°57'0 0.0
2017-Nov-18 19:29N 46°46' E 031°57'0 0.0
2017-Nov-18 18:56N 46°46' E 031°57'0 0.6
2017-Nov-18 18:30N 46°46' E 031°57'2 4.0
2017-Nov-18 18:01N 46°45' E 031°55'4 7.1
2017-Nov-18 17:30N 46°41' E 031°56'5 9.5
2017-Nov-18 17:00N 46°37' E 031°52'5 9.9
2017-Nov-18 16:29N 46°36' E 031°45'169 7.8
2017-Nov-17 18:40N 44°18' E 029°25'1 7.4
2017-Nov-17 18:30N 44°17' E 029°23'4 7.4
2017-Nov-17 18:00N 44°15' E 029°19'4 7.6
2017-Nov-17 17:30N 44°13' E 029°15'4 7.5
2017-Nov-17 17:00N 44°11' E 029°10'4 7.5
2017-Nov-17 16:30N 44°10' E 029°05'4 7.7
2017-Nov-17 16:00N 44°08' E 029°00'4 7.7
2017-Nov-17 15:30N 44°07' E 028°55'4 7.7
2017-Nov-17 15:00N 44°06' E 028°50'3 6.9
2017-Nov-17 14:30N 44°06' E 028°45'3 6.2
2017-Nov-17 14:00N 44°07' E 028°42'3 6.1
2017-Nov-17 13:29N 44°09' E 028°39'0 0.0
2017-Nov-17 12:58N 44°09' E 028°39'0 0.0
2017-Nov-17 12:30N 44°09' E 028°39'0 0.0
2017-Nov-17 12:00N 44°09' E 028°39'0 0.0
2017-Nov-17 11:30N 44°09' E 028°39'0 0.0
2017-Nov-17 10:54N 44°09' E 028°39'0 0.0
2017-Nov-17 10:28N 44°09' E 028°39'0 0.0
2017-Nov-17 10:00N 44°09' E 028°39'0 0.0
2017-Nov-17 09:26N 44°09' E 028°39'0 0.0
2017-Nov-17 09:00N 44°09' E 028°39'0 0.0
2017-Nov-17 08:29N 44°09' E 028°39'0 0.0
2017-Nov-17 07:57N 44°09' E 028°39'0 0.0
2017-Nov-17 07:28N 44°09' E 028°39'0 0.0
2017-Nov-17 06:59N 44°09' E 028°39'0 0.0
2017-Nov-17 06:30N 44°09' E 028°39'0 0.0
2017-Nov-17 05:58N 44°09' E 028°39'0 0.0
2017-Nov-17 05:30N 44°09' E 028°39'0 0.0
2017-Nov-17 04:59N 44°09' E 028°39'0 0.0
2017-Nov-17 04:23N 44°09' E 028°39'0 0.0
2017-Nov-17 03:59N 44°09' E 028°39'0 0.0
2017-Nov-17 03:30N 44°09' E 028°39'0 0.0
2017-Nov-17 02:55N 44°09' E 028°39'0 0.0
2017-Nov-17 02:30N 44°09' E 028°39'0 0.0
2017-Nov-17 01:58N 44°09' E 028°39'0 0.0
2017-Nov-17 01:28N 44°09' E 028°39'0 0.0
2017-Nov-17 01:00N 44°09' E 028°39'0 0.0
2017-Nov-17 00:30N 44°09' E 028°39'0 0.0
2017-Nov-17 00:00N 44°09' E 028°39'0 0.0
2017-Nov-16 23:28N 44°09' E 028°39'0 0.0
2017-Nov-16 23:00N 44°09' E 028°39'0 0.0
2017-Nov-16 22:29N 44°09' E 028°39'0 0.0
2017-Nov-16 21:59N 44°09' E 028°39'0 0.0
2017-Nov-16 21:30N 44°09' E 028°39'0 0.0
2017-Nov-16 21:00N 44°09' E 028°39'0 0.0
2017-Nov-16 20:28N 44°09' E 028°39'0 0.0
2017-Nov-16 20:00N 44°09' E 028°39'0 0.0
2017-Nov-16 19:24N 44°09' E 028°39'0 0.0
2017-Nov-16 18:59N 44°09' E 028°39'0 0.0
2017-Nov-16 18:28N 44°09' E 028°39'0 0.0
2017-Nov-16 18:00N 44°09' E 028°39'0 0.0
2017-Nov-16 17:30N 44°09' E 028°39'0 0.0
2017-Nov-16 17:00N 44°09' E 028°39'0 0.0
2017-Nov-16 16:29N 44°09' E 028°39'0 0.0
2017-Nov-16 16:00N 44°09' E 028°39'0 0.0
2017-Nov-16 15:25N 44°09' E 028°39'  
2017-Nov-14 00:25N 40°52' E 029°01'  

Dump ship's entire track history